• Join FlightAware (Why Join?)
  • Login
  • US Flag 
07:03PM EST


 

Airport Tracker/Info


-or-


 

Live Flight TrackerFlight Track Log ✈ BAW73 ✈ 24-Apr-2013 ✈ EGLL / LHR - OMAA / AUH

Flight Track Log - Related Links

Times and Time Zones

All times are in EDT time to prevent confusion due to time zone crossing. See the BAW73 flight status page for this flight to view local times or setup timezone preferences in your user account.

Time Position Orientation Groundspeed Altitude Reporting Facility
EDT Latitude Longitude Course Direction KTS MPH feet Rate Location/Type
05:10AM 51.4774 -0.5499 299° West 208 239 1,700  Level FlightAware ADS-B
05:10AM 51.4831 -0.5669 298° West 225 259 2,100 2,220 Climbing FlightAware ADS-B
05:10AM 51.4907 -0.5908 297° West 234 269 2,700 2,220 Climbing FlightAware ADS-B
05:10AM 51.4986 -0.6152 297° West 242 278 3,300 2,400 Climbing FlightAware ADS-B
05:11AM 51.5035 -0.6297 299° West 243 280 3,700 2,760 Climbing FlightAware ADS-B
05:11AM 51.5067 -0.6369 306° West 247 284 3,900 3,000 Climbing FlightAware ADS-B
05:11AM 51.5093 -0.6416 312° West 251 289 4,100 1,980 Climbing FlightAware ADS-B
05:11AM 51.5135 -0.6475 319° Northwest 258 297 4,200 1,320 Climbing FlightAware ADS-B
05:11AM 51.5175 -0.6518 327° Northwest 264 304 4,300 1,500 Climbing FlightAware ADS-B
05:11AM 51.5220 -0.6552 334° Northwest 269 310 4,400 1,980 Climbing FlightAware ADS-B
05:11AM 51.5278 -0.6582 342° North 275 316 4,600 3,000 Climbing FlightAware ADS-B
05:11AM 51.5328 -0.6596 351° North 278 320 4,800 3,000 Climbing FlightAware ADS-B
05:11AM 51.5367 -0.6599 356° North 281 323 4,900 2,520 Climbing FlightAware ADS-B
05:11AM 51.5414 -0.6596 North 284 327 5,100 2,220 Climbing FlightAware ADS-B
05:11AM 51.5458 -0.6587 North 285 328 5,200 1,320 Climbing FlightAware ADS-B
05:11AM 51.5530 -0.6555 15° North 287 330 5,300 1,200 Climbing FlightAware ADS-B
05:11AM 51.5588 -0.6513 24° Northeast 288 331 5,400 720 Climbing FlightAware ADS-B
05:11AM 51.5625 -0.6478 30° Northeast 288 331 5,400 660 Level FlightAware ADS-B
05:12AM 51.5688 -0.6400 38° Northeast 288 331 5,500 1,080 Climbing FlightAware ADS-B
05:12AM 51.5738 -0.6322 44° Northeast 290 334 5,600 660 Climbing FlightAware ADS-B
05:12AM 51.5768 -0.6267 49° Northeast 293 337 5,600  Level FlightAware ADS-B
05:12AM 51.5793 -0.6215 52° Northeast 295 339 5,600 300 Level FlightAware ADS-B
05:12AM 51.5913 -0.5928 56° Northeast 293 337 5,700 180 Climbing FlightAware ADS-B
05:12AM 51.6026 -0.5629 59° Northeast 292 336 5,700  Level FlightAware ADS-B
05:13AM 51.6146 -0.5314 58° Northeast 293 337 5,700  Level FlightAware ADS-B
05:13AM 51.6265 -0.4995 59° Northeast 292 336 5,700  Level FlightAware ADS-B
05:13AM 51.6377 -0.4698 59° Northeast 299 344 5,700  Level FlightAware ADS-B
05:13AM 51.6492 -0.4395 59° Northeast 311 358 5,700  Level FlightAware ADS-B
05:14AM 51.6608 -0.4089 58° Northeast 313 360 5,700  Level FlightAware ADS-B
05:14AM 51.6724 -0.3789 58° Northeast 312 359 5,700  Level FlightAware ADS-B
05:14AM 51.6845 -0.3471 58° Northeast 313 360 5,700  Level FlightAware ADS-B
05:14AM 51.6977 -0.3127 58° Northeast 311 358 5,700 180 Level FlightAware ADS-B
05:15AM 51.7095 -0.2813 59° Northeast 315 362 5,800 1,260 Climbing FlightAware ADS-B
05:15AM 51.7220 -0.2478 59° Northeast 317 365 6,400 2,400 Climbing FlightAware ADS-B
05:15AM 51.7357 -0.2098 60° Northeast 319 367 7,200 2,520 Climbing FlightAware ADS-B
05:16AM 51.7460 -0.1785 62° Northeast 323 372 7,800 2,280 Climbing FlightAware ADS-B
05:16AM 51.7490 -0.1654 70° East 325 374 8,000 2,220 Climbing FlightAware ADS-B
05:16AM 51.7534 -0.1427 73° East 326 375 8,400 2,640 Climbing FlightAware ADS-B
05:16AM 51.7609 -0.1064 71° East 329 379 9,100 2,280 Climbing FlightAware ADS-B
05:16AM 51.7691 -0.0607 74° East 336 387 9,700 1,920 Climbing FlightAware ADS-B
05:17AM 51.7814 0.0209 76° East 351 404 10,800 1,920 Climbing FlightAware ADS-B
05:17AM 51.7934 0.1041 77° East 367 422 11,800 480 Climbing FlightAware ADS-B
05:18AM 51.8009 0.1563 77° East 350 403 11,200 2,820 Descending FlightAware UK
05:18AM 51.8064 0.1944 77° East 369 425 13,400 2,580 Climbing FlightAware ADS-B
05:18AM 51.8124 0.2370 77° East 352 405 12,500 2,580 Descending FlightAware UK
05:19AM 51.8181 0.2764 77° East 376 433 14,700 2,160 Climbing FlightAware ADS-B
05:19AM 51.8241 0.3200 77° East 358 412 13,600 1,980 Descending FlightAware UK
05:19AM 51.8308 0.3666 77° East 388 447 15,800 2,280 Climbing FlightAware ADS-B
05:19AM 51.8386 0.4217 77° East 368 423 15,000 2,220 Descending FlightAware UK
05:20AM 51.8462 0.4730 77° East 396 456 17,200 2,160 Climbing FlightAware ADS-B
05:20AM 51.8535 0.5250 77° East 374 430 16,300 -360 Descending FlightAware UK
05:20AM 51.8610 0.5782 77° East 378 435 17,000 2,100 Climbing FlightAware UK
05:21AM 51.8687 0.6314 77° East 380 437 17,600 6,000 Climbing FlightAware UK
05:21AM 51.8690 0.6300 77° East 407 468 19,100 4,680 Climbing FlightAware
05:21AM 51.8821 0.7255 77° East 399 459 20,100 1,920 Climbing FlightAware ADS-B
05:22AM 51.8961 0.8266 77° East 425 489 21,100  Climbing FlightAware ADS-B
05:22AM 51.9044 0.8880 77° East 392 451 20,100 1,440 Descending FlightAware UK
05:22AM 51.9104 0.9291 77° East 437 503 21,900 1,620 Climbing FlightAware ADS-B
05:22AM 51.9176 0.9831 77° East 404 465 20,900 1,980 Descending FlightAware UK
05:23AM 51.9238 1.0266 77° East 442 509 22,900 3,600 Climbing FlightAware ADS-B
05:23AM 51.9385 1.1347 78° East 449 517 23,800 60 Climbing FlightAware ADS-B
05:24AM 51.9500 1.2194 78° East 414 476 23,000 1,680 Descending FlightAware UK
05:24AM 51.9529 1.2406 78° East 457 526 24,700 1,500 Climbing FlightAware ADS-B
05:24AM 51.9607 1.2991 78° East 418 481 23,600 1,620 Descending FlightAware UK
05:24AM 51.9682 1.3528 78° East 463 533 25,600 1,560 Climbing FlightAware ADS-B
05:25AM 51.9803 1.4426 78° East 424 488 24,700 1,500 Descending FlightAware UK
05:25AM 51.9820 1.4520 78° East 469 540 26,400 9,780 Climbing FlightAware
05:25AM 51.9851 1.4784 79° East 472 543 26,500 -2,520 Climbing FlightAware ADS-B
05:25AM 51.9940 1.5465 79° East 430 495 25,400 1,500 Descending FlightAware UK
05:25AM 51.9997 1.5889 79° East 477 549 27,300 1,560 Climbing FlightAware ADS-B
05:26AM 52.0077 1.6515 79° East 434 499 26,200 1,500 Descending FlightAware UK
05:26AM 52.0198 1.7413 79° East 487 560 28,400 1,380 Climbing FlightAware ADS-B
05:26AM 52.0272 1.8005 79° East 440 506 27,200 1,320 Descending FlightAware UK
05:27AM 52.0384 1.8852 79° East 495 570 29,300 1,260 Climbing FlightAware ADS-B
05:27AM 52.0470 1.9539 79° East 448 516 28,100 -1,380 Descending FlightAware UK
05:27AM 52.0557 2.0197 78° East 450 518 28,500 4,620 Climbing FlightAware UK
05:28AM 52.0580 2.0400 78° East 503 579 30,200 4,500 Climbing FlightAware
05:28AM 52.0691 2.1242 78° East 506 582 30,700 -840 Climbing FlightAware ADS-B
05:28AM 52.0811 2.2214 78° East 456 525 29,600 1,260 Descending FlightAware UK
05:29AM 52.0990 2.3640 78° East 515 593 32,100 1,260 Climbing FlightAware
05:29AM 52.1069 2.4268 78° East 468 539 30,800 1,020 Descending FlightAware UK
05:30AM 52.1150 2.5160 78° East 523 602 32,800 1,080 Climbing FlightAware
05:30AM 52.1194 2.6138 78° East 472 543 31,700 1,020 Descending FlightAware UK
05:30AM 52.1210 2.6860 78° East 530 610 33,600 2,460 Climbing FlightAware
05:31AM 52.1250 2.8490 88° East 535 616 34,300 1,020 Climbing FlightAware
05:32AM 52.1290 3.0350 88° East 541 623 35,100 -120 Climbing FlightAware
05:32AM 52.1309 3.1436 88° East 484 557 34,200 1,500 Descending FlightAware UK
05:33AM 52.1320 3.1990 88° East 536 617 36,100 1,380 Climbing FlightAware
05:33AM 52.1331 3.2647 88° East 480 552 34,900 1,320 Descending FlightAware UK
05:33AM 52.1350 3.3590 88° East 533 613 37,000 2,460 Climbing FlightAware
05:34AM 52.1380 3.5350 88° East 530 610 37,800 -420 Climbing FlightAware
05:34AM 52.1399 3.6239 88° East 478 550 36,600 -1,440 Descending FlightAware UK
05:35AM 52.1415 3.6950 88° East 476 548 36,900 5,700 Climbing FlightAware UK
05:35AM 52.1410 3.6920 88° East 526 605 38,500 2,820 Climbing FlightAware
05:35AM 52.1440 3.8480 88° East 527 606 38,900 300 Climbing FlightAware
05:36AM 52.1460 4.0250 89° East 527 606 39,000 -1,440 Climbing FlightAware
05:36AM 52.1471 4.0975 89° East 478 550 37,500 -2,340 Descending FlightAware UK
05:37AM 52.1487 4.1924 88° East 476 548 37,500 3,000 Level FlightAware UK
05:37AM 52.1490 4.2060 88° East 525 604 39,000 1,920 Climbing FlightAware
05:37AM 52.1500 4.3620 89° East 524 603 39,000 -1,260 Level FlightAware
05:38AM 52.1523 4.4992 89° East 474 545 37,500  Descending FlightAware UK
05:38AM 52.1520 4.5210 89° East 523 602 39,000  Climbing FlightAware
05:38AM 52.1530 4.5942 89° East 472 543 37,500 -2,700 Descending FlightAware UK
05:39AM 52.1538 4.6649 89° East 474 545 37,500 3,720 Level FlightAware UK
05:39AM 52.1530 4.6790 89° East 523 602 39,000  Climbing FlightAware
05:39AM 52.1549 4.7827 89° East 474 545 37,500  Descending FlightAware UK
05:40AM 52.1540 4.8560 89° East 525 604 39,000  Climbing FlightAware
05:40AM 52.1555 4.9474 89° East 476 548 37,500 -2,340 Descending FlightAware UK
05:40AM 52.1560 5.0184 89° East 476 548 37,500 4,680 Level FlightAware UK
05:40AM 52.1550 5.0080 89° East 524 603 39,000  Climbing FlightAware
05:40AM 52.1563 5.0893 89° East 476 548 37,500 -2,580 Descending FlightAware UK
05:41AM 52.1569 5.1601 89° East 476 548 37,500 3,900 Level FlightAware UK
05:41AM 52.1560 5.1650 89° East 523 602 39,000  Climbing FlightAware
05:41AM 52.1555 5.3000 89° East 476 548 37,500  Descending FlightAware UK
05:42AM 52.1570 5.3340 89° East 522 601 39,000  Climbing FlightAware
05:42AM 52.1554 5.4640 89° East 474 545 37,500  Descending FlightAware UK
05:42AM 52.1570 5.4870 89° East 522 601 39,000  Climbing FlightAware
05:43AM 52.1552 5.5812 89° East 474 545 37,500 -2,520 Descending FlightAware UK
05:43AM 52.1553 5.6516 90° East 476 548 37,500  Level FlightAware UK
05:43AM 52.1556 5.7466 90° East 476 548 37,500  Level FlightAware UK
05:44AM 52.1555 5.8171 90° East 476 548 37,500 3,600 Level FlightAware UK
05:44AM 52.1570 5.8270 90° East 521 600 39,000 1,680 Climbing FlightAware
05:44AM 52.1560 5.9990 90° East 521 600 39,000  Level FlightAware
05:45AM 52.1560 6.1360 90° East 521 600 39,000  Level FlightAware
05:46AM 52.1550 6.3220 90° East 520 598 39,000  Level FlightAware
05:47AM 52.1540 6.4950 90° East 519 597 39,000  Level FlightAware
05:47AM 52.1530 6.6270 91° East 519 597 39,000  Level FlightAware
05:48AM 52.1510 6.7960 91° East 518 596 39,000  Level FlightAware
05:49AM 52.1490 6.9850 91° East 518 596 39,000  Level FlightAware
05:49AM 52.1470 7.1410 91° East 518 596 39,000  Level FlightAware
05:50AM 52.1450 7.3120 91° East 516 594 39,000  Level FlightAware
05:51AM 52.1430 7.4590 91° East 517 595 39,000  Level FlightAware
05:51AM 52.1400 7.6370 92° East 516 594 39,000  Level FlightAware
05:52AM 52.1370 7.7850 92° East 515 593 39,000  Level FlightAware
05:53AM 52.1340 7.9530 92° East 514 592 39,000  Level FlightAware
05:54AM 52.1300 8.1250 92° East 514 592 39,000  Level FlightAware
05:54AM 52.1270 8.2850 92° East 514 592 39,000  Level FlightAware
05:55AM 52.1230 8.4300 93° East 514 592 39,000  Level FlightAware
05:56AM 52.1190 8.6110 92° East 514 592 39,000  Level FlightAware
05:56AM 52.1150 8.7640 92° East 514 592 39,000  Level FlightAware
05:57AM 52.1100 8.9340 93° East 513 590 39,000  Level FlightAware
05:58AM 52.1060 9.0890 92° East 512 589 39,000  Level FlightAware
05:58AM 52.1020 9.2330 93° East 513 590 39,000  Level FlightAware
05:59AM 52.0960 9.4120 93° East 513 590 39,000  Level FlightAware
06:00AM 52.0910 9.5690 93° East 514 592 39,000  Level FlightAware
06:01AM 52.0850 9.7440 93° East 513 590 39,000  Level FlightAware
06:01AM 52.0800 9.8850 93° East 512 589 39,000  Level FlightAware
06:02AM 52.0740 10.0500 93° East 511 588 39,000  Level FlightAware
06:03AM 52.0680 10.1980 94° East 511 588 39,000  Level FlightAware
06:03AM 52.0610 10.3730 94° East 512 589 39,000  Level FlightAware
06:04AM 52.0550 10.5270 94° East 513 590 39,000  Level FlightAware
06:05AM 52.0480 10.6940 94° East 512 589 39,000  Level FlightAware
06:05AM 52.0410 10.8550 94° East 510 587 39,000  Level FlightAware
06:06AM 52.0330 11.0140 95° East 510 587 39,000  Level FlightAware
06:07AM 52.0260 11.1770 94° East 509 586 39,000  Level FlightAware
06:08AM 52.0180 11.3490 94° East 510 587 39,000  Level FlightAware
06:08AM 52.0090 11.5170 95° East 511 588 39,000  Level FlightAware
06:09AM 52.0010 11.6700 95° East 511 588 39,000  Level FlightAware
06:10AM 51.9890 11.8220 97° East 515 593 39,000  Level FlightAware
06:10AM 51.9630 11.9880 104° East 520 598 39,000  Level FlightAware
06:11AM 51.9350 12.1440 106° East 520 598 39,000  Level FlightAware
06:12AM 51.9060 12.3090 106° East 519 597 39,000  Level FlightAware
06:12AM 51.8800 12.4570 106° East 520 598 39,000  Level FlightAware
06:13AM 51.8540 12.6070 106° East 518 596 39,000  Level FlightAware
06:14AM 51.8240 12.7710 106° East 518 596 39,000  Level FlightAware
06:15AM 51.7980 12.9180 106° East 518 596 39,000  Level FlightAware
06:15AM 51.7700 13.0700 107° East 519 597 39,000  Level FlightAware
06:16AM 51.7390 13.2380 107° East 519 597 39,000  Level FlightAware
06:17AM 51.7120 13.3820 107° East 518 596 39,000  Level FlightAware
06:17AM 51.6800 13.5500 107° East 519 597 39,000  Level FlightAware
06:18AM 51.6510 13.7000 107° East 520 598 39,000  Level FlightAware
06:19AM 51.6190 13.8670 107° East 522 601 39,000  Level FlightAware
06:19AM 51.5920 14.0080 107° East 523 602 39,000  Level FlightAware
06:20AM 51.5630 14.1580 107° East 525 604 39,000  Level FlightAware
06:21AM 51.5290 14.3260 108° East 526 605 39,000  Level FlightAware
06:22AM 51.5000 14.4750 107° East 527 606 39,000  Level FlightAware
06:22AM 51.4700 14.6230 108° East 527 606 39,000  Level FlightAware
06:23AM 51.4370 14.7880 108° East 527 606 39,000  Level FlightAware
06:24AM 51.4020 14.9590 108° East 526 605 39,000  Level FlightAware
06:24AM 51.3740 15.0960 108° East 528 608 39,000  Level FlightAware
06:25AM 51.3430 15.2470 108° East 527 606 39,000  Level FlightAware
06:26AM 51.3060 15.4210 109° East 528 608 39,000  Level FlightAware
06:26AM 51.2810 15.5410 108° East 527 606 39,000  Level FlightAware
06:27AM 51.2490 15.6930 109° East 526 605 39,000  Level FlightAware
06:28AM 51.2120 15.8680 109° East 526 605 39,000  Level FlightAware
06:29AM 51.1800 16.0160 109° East 524 603 39,000  Level FlightAware
06:29AM 51.1430 16.1870 109° East 523 602 39,000  Level FlightAware
06:30AM 51.1120 16.3290 109° East 522 601 39,000  Level FlightAware
06:31AM 51.0800 16.4730 109° East 518 596 39,000  Level FlightAware
06:31AM 51.0430 16.6410 109° East 519 597 39,000  Level FlightAware
06:32AM 51.0110 16.7840 110° East 519 597 39,000  Level FlightAware
06:33AM 50.9790 16.9280 109° East 521 600 39,000  Level FlightAware
06:33AM 50.9430 17.0840 110° East 520 598 39,000  Level FlightAware
06:34AM 50.9110 17.2270 109° East 519 597 39,000  Level FlightAware
06:35AM 50.8770 17.3750 110° East 518 596 39,000  Level FlightAware
06:36AM 50.8420 17.5260 110° East 517 595 39,000  Level FlightAware
06:36AM 50.8050 17.6860 110° East 516 594 39,000  Level FlightAware
06:37AM 50.7710 17.8300 110° East 516 594 39,000  Level FlightAware
06:38AM 50.7380 17.9700 110° East 516 594 39,000  Level FlightAware
06:38AM 50.7000 18.1300 111° Southeast 517 595 39,000  Level FlightAware
06:39AM 50.6660 18.2710 111° Southeast 516 594 39,000  Level FlightAware
06:40AM 50.6330 18.4080 111° Southeast 517 595 39,000  Level FlightAware
06:40AM 50.5940 18.5710 111° Southeast 518 596 39,000  Level FlightAware
06:41AM 50.5590 18.7120 111° Southeast 516 594 39,000  Level FlightAware
06:42AM 50.5220 18.8660 111° Southeast 516 594 39,000  Level FlightAware
06:43AM 50.4870 19.0050 112° Southeast 514 592 39,000  Level FlightAware
06:43AM 50.4470 19.1640 112° Southeast 513 590 39,000  Level FlightAware
06:44AM 50.4130 19.3020 111° Southeast 512 589 39,000  Level FlightAware
06:45AM 50.3780 19.4400 112° Southeast 510 587 39,000  Level FlightAware
06:45AM 50.3390 19.5940 112° Southeast 511 588 39,000  Level FlightAware
06:46AM 50.3060 19.7240 112° Southeast 511 588 39,000  Level FlightAware
06:47AM 50.2650 19.8810 112° Southeast 511 588 39,000  Level FlightAware
06:47AM 50.2300 20.0190 112° Southeast 510 587 39,000  Level FlightAware
06:48AM 50.1940 20.1550 112° Southeast 509 586 39,000  Level FlightAware
06:49AM 50.1550 20.3050 112° Southeast 509 586 39,000  Level FlightAware
06:50AM 50.1190 20.4420 112° Southeast 509 586 39,000  Level FlightAware
06:50AM 50.0790 20.5930 112° Southeast 508 585 39,000  Level FlightAware
06:51AM 50.0430 20.7290 112° Southeast 507 583 39,000  Level FlightAware
06:52AM 50.0030 20.8760 113° Southeast 506 582 39,000  Level FlightAware
06:52AM 49.9670 21.0110 112° Southeast 504 580 39,000  Level FlightAware
06:53AM 49.9310 21.1430 113° Southeast 502 578 39,000  Level FlightAware
06:54AM 49.8890 21.2950 113° Southeast 501 577 39,000  Level FlightAware
06:54AM 49.8530 21.4270 113° Southeast 502 578 39,000  Level FlightAware
06:55AM 49.8120 21.5740 113° Southeast 501 577 39,000  Level FlightAware
06:56AM 49.7760 21.7060 113° Southeast 501 577 39,000  Level FlightAware
06:57AM 49.7400 21.8330 114° Southeast 501 577 39,000  Level FlightAware
06:57AM 49.6970 21.9870 113° Southeast 500 575 39,000  Level FlightAware
06:58AM 49.6600 22.1150 114° Southeast 501 577 39,000  Level FlightAware
06:59AM 49.6240 22.2440 113° Southeast 503 579 39,000  Level FlightAware
06:59AM 49.5820 22.3900 114° Southeast 505 581 39,000  Level FlightAware
07:00AM 49.5460 22.5150 114° Southeast 502 578 39,000  Level FlightAware
07:01AM 49.4970 22.6810 114° Southeast 498 573 39,000  Level FlightAware
07:01AM 49.4720 22.7700 113° Southeast 503 579 39,000  Level FlightAware
07:02AM 49.4340 22.9150 112° Southeast 504 580 39,000  Level FlightAware
07:03AM 49.4010 23.0500 111° Southeast 505 581 39,000  Level FlightAware
07:03AM 49.3630 23.2050 111° Southeast 506 582 39,000  Level FlightAware
07:04AM 49.3350 23.3200 110° East 507 583 39,000  Level FlightAware
07:05AM 49.2950 23.4860 110° East 506 582 39,000  Level FlightAware
07:06AM 49.2630 23.6190 110° East 506 582 39,000  Level FlightAware
07:06AM 49.2340 23.7350 111° Southeast 507 583 39,000  Level FlightAware
07:07AM 49.1910 23.9080 111° Southeast 507 583 39,000  Level FlightAware
07:08AM 49.1580 24.0400 111° Southeast 506 582 39,000  Level FlightAware
07:08AM 49.1240 24.1740 111° Southeast 507 583 39,000  Level FlightAware
07:09AM 49.0880 24.3130 112° Southeast 506 582 39,000  Level FlightAware
07:10AM 49.0560 24.4380 111° Southeast 506 582 39,000  Level FlightAware
07:10AM 49.0160 24.5960 111° Southeast 506 582 39,000  Level FlightAware
07:11AM 48.9830 24.7240 111° Southeast 505 581 39,000  Level FlightAware
07:12AM 48.9320 24.9170 112° Southeast 505 581 39,000  Level FlightAware
07:13AM 48.8940 25.0630 112° Southeast 504 580 39,000  Level FlightAware
07:14AM 48.8490 25.2330 112° Southeast 506 582 39,000  Level FlightAware
07:14AM 48.8160 25.3570 112° Southeast 504 580 39,000  Level FlightAware
07:15AM 48.7770 25.5020 112° Southeast 502 578 39,000  Level FlightAware
07:16AM 48.7410 25.6350 112° Southeast 502 578 39,000  Level FlightAware
07:17AM 48.7000 25.7870 112° Southeast 502 578 39,000  Level FlightAware
07:17AM 48.6720 25.8910 112° Southeast 503 579 39,000  Level FlightAware
07:18AM 48.6280 26.0500 113° Southeast 502 578 39,000  Level FlightAware
07:19AM 48.6000 26.1560 112° Southeast 501 577 39,000  Level FlightAware
07:19AM 48.5700 26.2660 112° Southeast 501 577 39,000  Level FlightAware
07:20AM 48.5400 26.3770 112° Southeast 501 577 39,000  Level FlightAware
07:21AM 48.5110 26.4870 112° Southeast 501 577 39,000  Level FlightAware
07:21AM 48.4740 26.6250 112° Southeast 501 577 39,000  Level FlightAware
07:22AM 48.3770 26.8680 121° Southeast 506 582 39,000  Level FlightAware
07:23AM 48.3110 26.9660 135° Southeast 506 582 39,000  Level FlightAware
07:24AM 48.2400 27.0680 136° Southeast 506 582 39,000  Level FlightAware
07:24AM 48.1690 27.1710 136° Southeast 504 580 39,000  Level FlightAware
07:25AM 48.1080 27.2580 136° Southeast 504 580 39,000  Level FlightAware
07:26AM 48.0510 27.3410 136° Southeast 504 580 39,000  Level FlightAware
07:26AM 47.9940 27.4230 136° Southeast 504 580 39,000  Level FlightAware
07:28AM 47.8290 27.6570 136° Southeast 502 578 39,000  Level FlightAware
07:28AM 47.7650 27.7480 136° Southeast 502 578 39,000  Level FlightAware
07:29AM 47.6930 27.8490 137° Southeast 505 581 39,000  Level FlightAware
07:30AM 47.6270 27.9430 136° Southeast 505 581 39,000  Level FlightAware
07:30AM 47.5700 28.0250 136° Southeast 505 581 39,000  Level FlightAware
07:31AM 47.4810 28.1450 138° Southeast 507 583 39,000  Level FlightAware
07:32AM 47.4170 28.2340 137° Southeast 507 583 39,000  Level FlightAware
07:33AM 47.3280 28.3570 137° Southeast 506 582 39,000  Level FlightAware
07:33AM 47.2560 28.4560 137° Southeast 502 578 39,000  Level FlightAware
07:34AM 47.1820 28.5570 137° Southeast 500 575 39,000  Level FlightAware
07:35AM 47.0840 28.6900 137° Southeast 499 574 39,000  Level FlightAware
07:36AM 47.0310 28.7620 137° Southeast 499 574 39,000  Level FlightAware
07:37AM 46.9150 28.9200 137° Southeast 496 571 39,000  Level FlightAware
07:37AM 46.8470 29.0160 136° Southeast 497 572 39,000  Level FlightAware
07:38AM 46.7630 29.1360 136° Southeast 496 571 39,000  Level FlightAware
07:39AM 46.6960 29.2300 136° Southeast 497 572 39,000  Level FlightAware
07:40AM 46.6270 29.3260 136° Southeast 497 572 39,000  Level FlightAware
07:40AM 46.5570 29.4230 136° Southeast 498 573 39,000  Level FlightAware
07:41AM 46.4550 29.5660 136° Southeast 495 570 39,000  Level FlightAware
07:42AM 46.4020 29.6380 137° Southeast 493 567 39,000  Level FlightAware
07:43AM 46.3220 29.7470 137° Southeast 491 565 39,000  Level FlightAware
07:43AM 46.2510 29.8400 138° Southeast 489 563 39,000  Level FlightAware
07:44AM 46.1760 29.9380 138° Southeast 487 560 39,000  Level FlightAware
07:45AM 46.0980 30.0400 138° Southeast 484 557 39,000  Level FlightAware
07:45AM 46.0320 30.1260 138° Southeast 484 557 39,000  Level FlightAware
07:46AM 45.9650 30.2130 138° Southeast 484 557 39,000  Level FlightAware
07:47AM 45.8930 30.3060 138° Southeast 485 558 39,000  Level FlightAware
07:48AM 45.8340 30.3830 138° Southeast 486 559 39,000  Level FlightAware
07:48AM 45.7570 30.4810 138° Southeast 483 556 39,000  Level FlightAware
07:49AM 45.6830 30.5750 138° Southeast 483 556 39,000  Level FlightAware
07:50AM 45.6160 30.6610 138° Southeast 482 555 39,000  Level FlightAware
07:50AM 45.5410 30.7560 138° Southeast 483 556 39,000  Level FlightAware
07:51AM 45.4810 30.8310 139° Southeast 483 556 39,000  Level FlightAware
07:52AM 45.4080 30.9240 138° Southeast 483 556 39,000  Level FlightAware
07:52AM 45.3330 31.0180 139° Southeast 481 554 39,000  Level FlightAware
07:53AM 45.2650 31.1030 139° Southeast 483 556 39,000  Level FlightAware
07:54AM 45.1990 31.1880 138° Southeast 482 555 39,000  Level FlightAware
07:55AM 45.1250 31.2840 138° Southeast 482 555 39,000  Level FlightAware
07:55AM 45.0600 31.3680 138° Southeast 484 557 39,000  Level FlightAware
07:56AM 44.9870 31.4600 138° Southeast 485 558 39,000  Level FlightAware
07:57AM 44.9260 31.5370 138° Southeast 485 558 39,000  Level FlightAware
07:57AM 44.8600 31.6220 138° Southeast 486 559 39,000  Level FlightAware
07:58AM 44.7850 31.7160 138° Southeast 487 560 39,000  Level FlightAware
07:59AM 44.7210 31.7970 138° Southeast 487 560 39,000  Level FlightAware
07:59AM 44.6420 31.8960 138° Southeast 488 562 39,000  Level FlightAware
08:00AM 44.5750 31.9800 138° Southeast 488 562 39,000  Level FlightAware
08:01AM 44.5070 32.0640 139° Southeast 489 563 39,000  Level FlightAware
08:01AM 44.4330 32.1520 140° Southeast 489 563 39,000  Level FlightAware
08:02AM 44.3610 32.2360 140° Southeast 488 562 39,000  Level FlightAware
08:03AM 44.2910 32.3190 140° Southeast 488 562 39,000  Level FlightAware
08:04AM 44.2150 32.4080 140° Southeast 489 563 39,000  Level FlightAware
08:04AM 44.1450 32.4910 140° Southeast 493 567 39,000  Level FlightAware
08:05AM 44.0670 32.5850 139° Southeast 495 570 39,000  Level FlightAware
08:06AM 43.9980 32.6690 139° Southeast 496 571 39,000  Level FlightAware
08:06AM 43.9290 32.7520 139° Southeast 499 574 39,000  Level FlightAware
08:07AM 43.8490 32.8470 139° Southeast 502 578 39,000  Level FlightAware
08:08AM 43.7810 32.9280 139° Southeast 502 578 39,000  Level FlightAware
08:08AM 43.7020 33.0220 139° Southeast 502 578 39,000  Level FlightAware
08:09AM 43.6300 33.1070 139° Southeast 502 578 39,000  Level FlightAware
08:10AM 43.5600 33.1900 139° Southeast 503 579 39,000  Level FlightAware
08:11AM 43.4820 33.2810 140° Southeast 504 580 39,000  Level FlightAware
08:11AM 43.4080 33.3670 140° Southeast 503 579 39,000  Level FlightAware
08:12AM 43.3280 33.4600 140° Southeast 504 580 39,000  Level FlightAware
08:13AM 43.2570 33.5420 140° Southeast 503 579 39,000  Level FlightAware
08:13AM 43.1770 33.6350 140° Southeast 502 578 39,000  Level FlightAware
08:14AM 43.1060 33.7170 140° Southeast 503 579 39,000  Level FlightAware
08:15AM 43.0360 33.7970 140° Southeast 502 578 39,000  Level FlightAware
08:15AM 42.9630 33.8810 140° Southeast 504 580 39,000  Level FlightAware
08:16AM 42.8990 33.9530 140° Southeast 504 580 39,000  Level FlightAware
08:17AM 42.8120 34.0520 140° Southeast 506 582 39,000  Level FlightAware
08:18AM 42.7410 34.1360 139° Southeast 506 582 39,000  Level FlightAware
08:18AM 42.6810 34.2070 139° Southeast 506 582 39,000  Level FlightAware
08:19AM 42.6210 34.2780 139° Southeast 506 582 39,000  Level FlightAware
08:20AM 42.5610 34.3490 139° Southeast 506 582 39,000  Level FlightAware
08:20AM 42.4860 34.4380 139° Southeast 506 582 39,000  Level FlightAware
08:21AM 42.4260 34.5080 139° Southeast 506 582 39,000  Level FlightAware
08:22AM 42.3660 34.5790 139° Southeast 506 582 39,000  Level FlightAware
08:22AM 42.3060 34.6500 139° Southeast 506 582 39,000  Level FlightAware
08:23AM 42.1620 34.8980 128° Southeast 504 580 39,000  Level FlightAware
08:24AM 42.0850 34.9970 136° Southeast 504 580 39,000  Level FlightAware
08:25AM 42.0160 35.0860 136° Southeast 505 581 39,000  Level FlightAware
08:25AM 41.9590 35.1600 136° Southeast 505 581 39,000  Level FlightAware
08:26AM 41.9020 35.2340 136° Southeast 505 581 39,000  Level FlightAware
08:27AM 41.8450 35.3080 136° Southeast 505 581 39,000  Level FlightAware
08:27AM 41.7880 35.3820 136° Southeast 505 581 39,000  Level FlightAware
08:28AM 41.7160 35.4750 136° Southeast 505 581 39,000  Level FlightAware
08:29AM 41.6590 35.5490 136° Southeast 505 581 39,000  Level FlightAware
08:30AM 41.6020 35.6220 136° Southeast 505 581 39,000  Level FlightAware
08:30AM 41.5450 35.6960 136° Southeast 505 581 39,000  Level FlightAware
08:31AM 41.5020 35.7510 136° Southeast 505 581 39,000  Level FlightAware
08:31AM 41.4450 35.8250 136° Southeast 505 581 39,000  Level FlightAware
08:32AM 41.3880 35.8990 136° Southeast 505 581 39,000  Level FlightAware
08:33AM 41.3160 35.9910 136° Southeast 505 581 39,000  Level FlightAware
08:34AM 41.2590 36.0640 136° Southeast 505 581 39,000  Level FlightAware
08:34AM 41.2840 36.5140 86° East 39,000  Level FlightAware
08:37AM 41.0922 36.7909 133° Southeast  Level Estimated
08:38AM 41.0086 36.9107 133° Southeast  Level Estimated
08:39AM 40.9249 37.0303 133° Southeast  Level Estimated
08:40AM 40.8411 37.1496 133° Southeast  Level Estimated
08:41AM 40.7571 37.2685 133° Southeast  Level Estimated
08:42AM 40.6730 37.3872 133° Southeast  Level Estimated
08:43AM 40.5888 37.5056 133° Southeast  Level Estimated
08:44AM 40.5045 37.6236 133° Southeast  Level Estimated
08:45AM 40.4201 37.7414 133° Southeast  Level Estimated
08:46AM 40.3355 37.8589 133° Southeast  Level Estimated
08:47AM 40.2508 37.9761 133° Southeast  Level Estimated
08:48AM 40.1660 38.0929 133° Southeast  Level Estimated
08:49AM 40.0811 38.2095 134° Southeast  Level Estimated
08:50AM 39.9961 38.3258 134° Southeast  Level Estimated
08:51AM 39.9109 38.4419 134° Southeast  Level Estimated
08:52AM 39.8257 38.5576 134° Southeast  Level Estimated
08:53AM 39.7403 38.6730 134° Southeast  Level Estimated
08:54AM 39.6548 38.7882 134° Southeast  Level Estimated
08:55AM 39.5692 38.9030 134° Southeast  Level Estimated
08:56AM 39.4835 39.0176 134° Southeast  Level Estimated
08:57AM 39.3977 39.1319 134° Southeast  Level Estimated
08:58AM 39.3117 39.2460 134° Southeast  Level Estimated
08:59AM 39.2257 39.3597 134° Southeast  Level Estimated
09:00AM 39.1395 39.4732 134° Southeast  Level Estimated
09:01AM 39.0532 39.5863 134° Southeast  Level Estimated
09:02AM 38.9669 39.6993 135° Southeast  Level Estimated
09:03AM 38.8804 39.8119 135° Southeast  Level Estimated
09:04AM 38.7938 39.9243 135° Southeast  Level Estimated
09:05AM 38.7071 40.0363 135° Southeast  Level Estimated
09:06AM 38.6202 40.1482 135° Southeast  Level Estimated
09:07AM 38.5333 40.2597 135° Southeast  Level Estimated
09:08AM 38.4463 40.3710 135° Southeast  Level Estimated
09:09AM 38.3592 40.4820 135° Southeast  Level Estimated
09:10AM 38.2719 40.5927 135° Southeast  Level Estimated
09:10AM 38.2940 41.9230 135° Southeast 526 605 39,000  Level FlightAware
09:10AM 38.2530 41.9940 126° Southeast 524 603 39,000  Level FlightAware
09:11AM 38.1810 42.1160 127° Southeast 522 601 39,000  Level FlightAware
09:12AM 38.1150 42.2280 127° Southeast 518 596 39,000  Level FlightAware
09:12AM 38.0580 42.3260 126° Southeast 516 594 39,000  Level FlightAware
09:13AM 37.9940 42.4340 127° Southeast 516 594 39,000  Level FlightAware
09:14AM 37.9380 42.5270 127° Southeast 515 593 39,000  Level FlightAware
09:14AM 37.8770 42.6290 127° Southeast 514 592 39,000  Level FlightAware
09:15AM 37.8020 42.7230 135° Southeast 513 590 39,000  Level FlightAware
09:16AM 37.7310 42.8020 139° Southeast 513 590 39,000  Level FlightAware
09:17AM 37.6500 42.8900 139° Southeast 512 589 39,000  Level FlightAware
09:17AM 37.5770 42.9700 139° Southeast 514 592 39,000  Level FlightAware
09:18AM 37.4970 43.0570 139° Southeast 515 593 39,000  Level FlightAware
09:19AM 37.4260 43.1350 139° Southeast 516 594 39,000  Level FlightAware
09:19AM 37.3500 43.2090 142° Southeast 512 589 39,000  Level FlightAware
09:20AM 37.2550 43.2700 153° Southeast 508 585 39,000  Level FlightAware
09:21AM 37.1690 43.3190 156° South 508 585 39,000  Level FlightAware
09:21AM 37.0840 43.3670 156° South 511 588 39,000  Level FlightAware
09:22AM 36.9890 43.4210 156° South 510 587 39,000  Level FlightAware
09:23AM 36.9030 43.4690 156° South 509 586 39,000  Level FlightAware
09:24AM 36.8160 43.5170 156° South 510 587 39,000  Level FlightAware
09:24AM 36.7160 43.5720 156° South 511 588 39,000  Level FlightAware
09:25AM 36.6210 43.6220 157° South 512 589 39,000  Level FlightAware
09:26AM 36.5320 43.6680 157° South 514 592 39,000  Level FlightAware
09:26AM 36.4440 43.7130 158° South 515 593 39,000  Level FlightAware
09:27AM 36.3440 43.7650 157° South 515 593 39,000  Level FlightAware
09:28AM 36.2550 43.8110 157° South 516 594 39,000  Level FlightAware
09:29AM 36.1600 43.8610 157° South 516 594 39,000  Level FlightAware
09:29AM 36.0730 43.9070 157° South 514 592 39,000  Level FlightAware
09:30AM 35.9830 43.9540 157° South 510 587 39,000  Level FlightAware
09:31AM 35.8850 44.0050 157° South 507 583 39,000  Level FlightAware
09:31AM 35.7980 44.0510 157° South 509 586 39,000  Level FlightAware
09:32AM 35.7030 44.1000 157° South 510 587 39,000  Level FlightAware
09:33AM 35.6150 44.1460 157° South 511 588 39,000  Level FlightAware
09:33AM 35.5270 44.1910 157° South 512 589 39,000  Level FlightAware
09:34AM 35.4280 44.2420 157° South 514 592 39,000  Level FlightAware
09:35AM 35.3400 44.2880 157° South 515 593 39,000  Level FlightAware
09:36AM 35.2430 44.3360 158° South 514 592 39,000  Level FlightAware
09:36AM 35.1520 44.3780 159° South 512 589 39,000  Level FlightAware
09:37AM 35.0650 44.4170 160° South 513 590 39,000  Level FlightAware
09:38AM 34.9630 44.4640 159° South 512 589 39,000  Level FlightAware
09:38AM 34.8730 44.5050 160° South 512 589 39,000  Level FlightAware
09:39AM 34.7880 44.5440 159° South 514 592 39,000  Level FlightAware
09:40AM 34.6840 44.5920 159° South 515 593 39,000  Level FlightAware
09:40AM 34.5940 44.6330 159° South 517 595 39,000  Level FlightAware
09:41AM 34.4950 44.6780 159° South 518 596 39,000  Level FlightAware
09:42AM 34.4080 44.7200 158° South 519 597 39,000  Level FlightAware
09:43AM 34.3090 44.7700 157° South 519 597 39,000  Level FlightAware
09:43AM 34.2170 44.8150 158° South 520 598 39,000  Level FlightAware
09:44AM 34.1270 44.8590 158° South 519 597 39,000  Level FlightAware
09:45AM 34.0420 44.9010 158° South 518 596 39,000  Level FlightAware
09:45AM 33.9480 44.9460 158° South 517 595 39,000  Level FlightAware
09:46AM 33.8510 44.9930 158° South 515 593 39,000  Level FlightAware
09:47AM 33.7660 45.0340 158° South 513 590 39,000  Level FlightAware
09:47AM 33.6660 45.0820 158° South 509 586 39,000  Level FlightAware
09:48AM 33.5700 45.1260 159° South 508 585 39,000  Level FlightAware
09:49AM 33.4800 45.1670 159° South 509 586 39,000  Level FlightAware
09:49AM 33.3930 45.2070 159° South 509 586 39,000  Level FlightAware
09:50AM 33.2950 45.2520 159° South 510 587 39,000  Level FlightAware
09:51AM 33.2110 45.2930 158° South 511 588 39,000  Level FlightAware
09:52AM 33.0570 45.3710 157° South 513 590 39,000  Level FlightAware
09:53AM 32.9820 45.4090 157° South 513 590 39,000  Level FlightAware
09:53AM 32.9080 45.4470 157° South 513 590 39,000  Level FlightAware
09:54AM 32.8340 45.4840 157° South 513 590 39,000  Level FlightAware
09:55AM 32.7410 45.5310 157° South 513 590 39,000  Level FlightAware
09:56AM 32.6670 45.5690 157° South 513 590 39,000  Level FlightAware
09:56AM 32.5920 45.6060 157° South 513 590 39,000  Level FlightAware
09:57AM 32.5180 45.6430 157° South 513 590 39,000  Level FlightAware
09:58AM 32.4440 45.6810 157° South 513 590 39,000  Level FlightAware
09:58AM 32.3510 45.7270 157° South 513 590 39,000  Level FlightAware
09:59AM 32.2770 45.7650 157° South 513 590 39,000  Level FlightAware
10:00AM 32.2020 45.8020 157° South 513 590 39,000  Level FlightAware
10:01AM 32.1100 45.8490 157° South 513 590 39,000  Level FlightAware
10:01AM 32.0350 45.8860 157° South 513 590 39,000  Level FlightAware
10:04AM 31.8438 46.1322 132° Southeast  Level Estimated
10:05AM 31.7606 46.2389 133° Southeast  Level Estimated
10:06AM 31.6772 46.3455 133° Southeast  Level Estimated
10:07AM 31.5938 46.4518 133° Southeast  Level Estimated
10:08AM 31.5103 46.5579 133° Southeast  Level Estimated
10:09AM 31.4266 46.6639 133° Southeast  Level Estimated
10:10AM 31.3430 46.7697 133° Southeast  Level Estimated
10:11AM 31.2592 46.8753 133° Southeast  Level Estimated
10:12AM 31.1753 46.9807 133° Southeast  Level Estimated
10:13AM 31.0913 47.0859 133° Southeast  Level Estimated
10:13AM 30.7110 47.6340 133° Southeast 532 612 39,000  Level FlightAware
10:14AM 30.6430 47.7070 137° Southeast 532 612 39,000  Level FlightAware
10:14AM 30.5820 47.7730 137° Southeast 532 612 39,000  Level FlightAware
10:15AM 30.5210 47.8400 137° Southeast 532 612 39,000  Level FlightAware
10:16AM 30.3490 47.9400 153° Southeast 515 593 39,000  Level FlightAware
10:17AM 30.2710 47.9980 147° Southeast 515 593 39,000  Level FlightAware
10:18AM 30.1900 48.0550 149° Southeast 515 593 39,000  Level FlightAware
10:18AM 30.1080 48.1140 148° Southeast 513 590 39,000  Level FlightAware
10:19AM 30.0400 48.1630 148° Southeast 513 590 39,000  Level FlightAware
10:20AM 29.9100 48.2550 148° Southeast 510 587 39,000  Level FlightAware
10:21AM 29.8090 48.3270 148° Southeast 509 586 39,000  Level FlightAware
10:21AM 29.7510 48.3680 148° Southeast 511 588 39,000  Level FlightAware
10:22AM 29.6490 48.4420 148° Southeast 512 589 39,000  Level FlightAware
10:23AM 29.5650 48.5010 149° Southeast 513 590 39,000  Level FlightAware
10:23AM 29.4980 48.5480 149° Southeast 515 593 39,000  Level FlightAware
10:24AM 29.3990 48.6190 148° Southeast 515 593 39,000  Level FlightAware
10:25AM 29.3180 48.6760 148° Southeast 518 596 39,000  Level FlightAware
10:26AM 29.2140 48.7490 149° Southeast 517 595 39,000  Level FlightAware
10:26AM 29.1230 48.8130 148° Southeast 512 589 39,000  Level FlightAware
10:27AM 29.0460 48.8680 148° Southeast 512 589 39,000  Level FlightAware
10:28AM 28.9290 48.9490 149° Southeast 506 582 39,000  Level FlightAware
10:29AM 28.8530 49.0030 148° Southeast 506 582 39,000  Level FlightAware
10:29AM 28.7520 49.0730 149° Southeast 504 580 39,000  Level FlightAware
10:30AM 28.6860 49.1190 149° Southeast 504 580 39,000  Level FlightAware
10:31AM 28.5620 49.2040 149° Southeast 501 577 39,000  Level FlightAware
10:32AM 28.4460 49.2850 148° Southeast 504 580 39,000  Level FlightAware
10:33AM 28.3670 49.3410 148° Southeast 504 580 39,000  Level FlightAware
10:33AM 28.3000 49.3880 148° Southeast 504 580 39,000  Level FlightAware
10:34AM 28.2110 49.4470 150° Southeast 506 582 39,000  Level FlightAware
10:35AM 28.1280 49.5060 148° Southeast 506 582 39,000  Level FlightAware
10:36AM 28.0440 49.5650 148° Southeast 506 582 39,000  Level FlightAware
10:36AM 27.9760 49.6130 148° Southeast 506 582 39,000  Level FlightAware
10:37AM 27.9090 49.6610 148° Southeast 506 582 39,000  Level FlightAware
10:38AM 27.8410 49.7090 148° Southeast 506 582 39,000  Level FlightAware
10:38AM 27.7740 49.7560 148° Southeast 506 582 39,000  Level FlightAware
10:39AM 27.6890 49.8160 148° Southeast 506 582 39,000  Level FlightAware
10:40AM 27.6220 49.8640 148° Southeast 506 582 39,000  Level FlightAware
10:40AM 27.5540 49.9110 148° Southeast 506 582 39,000  Level FlightAware
10:41AM 27.4870 49.9590 148° Southeast 506 582 39,000  Level FlightAware
10:42AM 27.4190 50.0060 148° Southeast 506 582 39,000  Level FlightAware
10:42AM 27.3520 50.0540 148° Southeast 506 582 39,000  Level FlightAware
10:43AM 27.2670 50.1130 148° Southeast 506 582 39,000  Level FlightAware
10:44AM 27.2000 50.1600 148° Southeast 506 582 39,000  Level FlightAware
10:46AM 27.0892 50.3486 123° Southeast  Level Estimated
10:46AM 26.8650 50.5740 123° Southeast 520 598 39,000  Level FlightAware
10:46AM 26.7890 50.6630 134° Southeast 527 606 39,000  Level FlightAware
10:47AM 26.7210 50.7400 135° Southeast 528 608 39,000  Level FlightAware
10:48AM 26.6430 50.8280 135° Southeast 526 605 39,000  Level FlightAware
10:48AM 26.5750 50.9040 135° Southeast 525 604 39,000  Level FlightAware
10:49AM 26.5010 50.9870 135° Southeast 524 603 39,000  Level FlightAware
10:50AM 26.4310 51.0650 135° Southeast 524 603 39,000  Level FlightAware
10:50AM 26.3580 51.1490 134° Southeast 524 603 39,000  Level FlightAware
10:51AM 26.2590 51.2590 135° Southeast 512 589 39,000  Level FlightAware
10:52AM 26.2020 51.3230 135° Southeast 509 586 39,000  Level FlightAware
10:53AM 26.1420 51.4110 127° Southeast 521 600 39,000  Level FlightAware
10:54AM 26.0720 51.5670 117° Southeast 524 603 39,000  Level FlightAware
10:55AM 25.9890 51.7610 115° Southeast 527 606 39,000  Level FlightAware
10:56AM 25.8890 51.9500 120° Southeast 520 598 39,000  Level FlightAware
10:57AM 25.8250 52.0470 126° Southeast 526 605 39,000  Level FlightAware
10:58AM 25.7680 52.1340 126° Southeast 524 603 39,000  Level FlightAware
10:59AM 25.7100 52.2230 126° Southeast 525 604 39,000 -1,080 Level FlightAware
10:59AM 25.6440 52.3250 126° Southeast 525 604 37,500 -2,220 Descending FlightAware
11:00AM 25.5940 52.4010 126° Southeast 526 605 35,900 -2,760 Descending FlightAware
11:01AM 25.5220 52.5110 126° Southeast 527 606 33,600 -2,700 Descending FlightAware
11:02AM 25.4450 52.6280 126° Southeast 514 592 31,400 -2,280 Descending FlightAware
11:02AM 25.3910 52.7120 125° Southeast 501 577 30,000 -2,040 Descending FlightAware
11:03AM 25.3440 52.7960 122° Southeast 495 570 28,700 -1,380 Descending FlightAware
11:04AM 25.2860 52.9300 116° Southeast 488 562 27,700 -600 Descending FlightAware
11:05AM 25.2530 53.0070 115° Southeast 488 562 27,700  Level FlightAware
11:05AM 25.2210 53.0840 115° Southeast 488 562 27,700 -1,620 Level FlightAware
11:05AM 25.1900 53.1240 131° Southeast 23,800 -1,680 Descending FlightAware
11:08AM 25.0701 53.3693 118° Southeast  Level Estimated
11:09AM 25.0114 53.4888 118° Southeast  Level Estimated
11:10AM 24.9527 53.6082 118° Southeast  Level Estimated
11:11AM 24.8938 53.7274 119° Southeast  Level Estimated
11:12AM 24.8349 53.8466 119° Southeast  Level Estimated
11:13AM 24.7759 53.9656 119° Southeast  Level Estimated
11:14AM 24.7167 54.0845 119° Southeast  Level Estimated
11:15AM 24.6575 54.2033 119° Southeast  Level Estimated
11:16AM 24.5982 54.3220 119° Southeast  Level Estimated
11:17AM 24.5388 54.4406 119° Southeast  Level Estimated
11:18AM 24.4793 54.5591 119° Southeast  Level Estimated
11:19AM 24.4330 54.6511 119° Southeast  Level Estimated
11:20AM 24.4330 54.6511 318° Northwest  Level Estimated
11:21AM 24.4330 54.6511 318° Northwest  Level Estimated
11:21AM 24.4970 54.5610 318° Northwest 163 188 1,700  Level FlightAware
11:21AM 24.4840 54.5800 127° Southeast 142 163 1,300 -780 Descending FlightAware
11:22AM 24.4740 54.5940 128° Southeast 134 154 1,000 -660 Descending FlightAware
11:22AM 24.4620 54.6110 128° Southeast 137 158 700 -720 Descending FlightAware
11:23AM 24.4560 54.6190 129° Southeast 135 155 500 -780 Descending FlightAware
11:23AM 24.4470 54.6310 129° Southeast 136 157 200 -360 Descending FlightAware
11:23AM 24.4380 54.6440 127° Southeast 136 157 200  Level FlightAware
11:26AM 24.4330 54.6511 128° Southeast  Level Estimated